createdAt,value
2023-03-11T00:01:16.552Z,12.57
2023-03-11T00:04:18.312Z,13.65
2023-03-11T00:07:20.220Z,11.23
2023-03-11T00:10:31.340Z,12.85
2023-03-11T00:13:33.805Z,13.90
2023-03-11T00:16:35.741Z,12.57
2023-03-11T00:19:37.463Z,12.27
2023-03-11T00:22:42.090Z,10.13
2023-03-11T00:25:45.855Z,10.68
2023-03-11T00:28:49.194Z,11.82
2023-03-11T00:31:50.965Z,17.23
2023-03-11T00:34:52.771Z,14.02
2023-03-11T00:38:00.610Z,12.15
2023-03-11T00:41:02.395Z,13.30
2023-03-11T00:44:06.341Z,11.55
2023-03-11T00:47:09.749Z,13.68
2023-03-11T00:50:17.986Z,14.70
2023-03-11T00:53:19.719Z,13.55
2023-03-11T00:56:21.467Z,15.30
2023-03-11T00:59:23.596Z,12.93
2023-03-11T01:02:25.433Z,13.45
2023-03-11T01:05:31.109Z,12.85
2023-03-11T01:08:33.197Z,11.85
2023-03-11T01:11:35.350Z,11.75
2023-03-11T01:14:37.124Z,11.32
2023-03-11T01:17:38.837Z,10.93
2023-03-11T01:20:40.643Z,11.65
2023-03-11T01:23:43.014Z,9.43
2023-03-11T01:26:46.367Z,9.43
2023-03-11T01:29:48.056Z,12.15
2023-03-11T01:32:51.150Z,15.32
2023-03-11T01:35:53.084Z,10.18
2023-03-11T01:38:54.798Z,11.45
2023-03-11T01:41:56.800Z,9.57
2023-03-11T01:44:59.138Z,12.98
2023-03-11T01:48:01.052Z,11.80
2023-03-11T01:51:03.050Z,11.07
2023-03-11T01:54:10.812Z,11.18
2023-03-11T01:57:14.425Z,11.05
2023-03-11T02:00:17.006Z,13.05
2023-03-11T02:03:31.043Z,11.18
2023-03-11T02:06:33.714Z,11.75
2023-03-11T02:09:36.484Z,14.80
2023-03-11T02:12:38.518Z,12.50
2023-03-11T02:15:41.013Z,12.98
2023-03-11T02:18:43.457Z,14.35
2023-03-11T02:21:45.415Z,14.40
2023-03-11T02:25:01.690Z,17.65
2023-03-11T02:28:08.468Z,15.32
2023-03-11T02:31:11.097Z,13.00
2023-03-11T02:34:23.649Z,13.13
2023-03-11T02:37:25.563Z,15.00
2023-03-11T02:40:51.818Z,14.68
2023-03-11T02:43:56.780Z,13.65
2023-03-11T02:47:00.289Z,13.23
2023-03-11T02:50:02.834Z,14.25
2023-03-11T02:53:06.794Z,14.55
2023-03-11T02:56:08.533Z,14.90
2023-03-11T02:59:10.553Z,13.00
2023-03-11T03:02:12.516Z,17.15
2023-03-11T03:05:15.109Z,14.82
2023-03-11T03:08:17.346Z,16.45
2023-03-11T03:11:19.240Z,14.68
2023-03-11T03:14:21.330Z,15.95
2023-03-11T03:17:24.812Z,16.65
2023-03-11T03:20:27.210Z,13.75
2023-03-11T03:23:37.697Z,14.07
2023-03-11T03:26:39.549Z,13.73
2023-03-11T03:29:42.477Z,15.18
2023-03-11T03:32:44.727Z,14.18
2023-03-11T03:35:50.133Z,14.85
2023-03-11T03:38:59.688Z,16.63
2023-03-11T03:42:06.407Z,15.88
2023-03-11T03:45:12.081Z,14.73
2023-03-11T03:48:14.091Z,15.85
2023-03-11T03:51:19.457Z,17.13
2023-03-11T03:54:34.651Z,15.77
2023-03-11T03:57:37.265Z,15.38
2023-03-11T04:00:40.016Z,19.48
2023-03-11T04:03:42.145Z,16.60
2023-03-11T04:06:47.196Z,15.80
2023-03-11T04:09:49.427Z,15.52
2023-03-11T04:12:51.593Z,16.60
2023-03-11T04:15:53.673Z,16.85
2023-03-11T04:18:55.567Z,18.27
2023-03-11T04:21:57.432Z,17.08
2023-03-11T04:25:00.501Z,19.42
2023-03-11T04:28:02.708Z,26.08
2023-03-11T04:31:06.127Z,21.40
2023-03-11T04:34:08.876Z,20.42
2023-03-11T04:37:12.193Z,17.10
2023-03-11T04:40:15.173Z,21.67
2023-03-11T04:43:17.456Z,19.02
2023-03-11T04:46:20.613Z,19.33
2023-03-11T04:49:23.214Z,23.20
2023-03-11T04:52:26.547Z,24.73
2023-03-11T04:55:28.979Z,21.33
2023-03-11T04:58:30.944Z,22.63
2023-03-11T05:01:32.990Z,23.05
2023-03-11T05:04:38.801Z,23.98
2023-03-11T05:07:40.805Z,24.10
2023-03-11T05:10:44.527Z,26.65
2023-03-11T05:13:47.226Z,28.85
2023-03-11T05:16:51.166Z,27.10
2023-03-11T05:19:56.499Z,29.20
2023-03-11T05:23:03.641Z,32.92
2023-03-11T05:26:07.715Z,30.85
2023-03-11T05:29:10.338Z,26.25
2023-03-11T05:32:13.715Z,27.38
2023-03-11T05:35:17.174Z,27.42
2023-03-11T05:38:19.075Z,23.50
2023-03-11T05:41:21.016Z,26.35
2023-03-11T05:44:23.295Z,26.25
2023-03-11T05:47:25.661Z,25.38
2023-03-11T05:50:28.031Z,24.23
2023-03-11T05:53:30.447Z,22.52
2023-03-11T05:56:32.313Z,25.98
2023-03-11T05:59:35.489Z,23.23
2023-03-11T06:02:40.940Z,23.13
2023-03-11T06:05:47.688Z,23.60
2023-03-11T06:08:50.342Z,21.95
2023-03-11T06:11:54.420Z,24.60
2023-03-11T06:14:59.799Z,24.38
2023-03-11T06:18:02.139Z,22.08
2023-03-11T06:21:04.665Z,23.50
2023-03-11T06:24:08.040Z,22.90
2023-03-11T06:27:11.307Z,22.35
2023-03-11T06:30:15.755Z,25.55
2023-03-11T06:33:26.256Z,24.65
2023-03-11T06:36:28.374Z,24.98
2023-03-11T06:39:30.168Z,23.55
2023-03-11T06:42:32.087Z,26.48
2023-03-11T06:45:34.204Z,24.67
2023-03-11T06:48:36.482Z,25.85
2023-03-11T06:51:38.340Z,24.27
2023-03-11T06:54:40.388Z,22.60
2023-03-11T06:57:42.453Z,22.90
2023-03-11T07:00:45.912Z,20.70
2023-03-11T07:03:49.678Z,19.92
2023-03-11T07:06:51.617Z,19.20
2023-03-11T07:09:57.898Z,25.15
2023-03-11T07:12:59.823Z,29.23
2023-03-11T07:16:09.558Z,24.60
2023-03-11T07:19:14.328Z,20.10
2023-03-11T07:22:16.667Z,22.33
2023-03-11T07:25:18.666Z,20.20
2023-03-11T07:28:20.398Z,6.57
2023-03-11T07:31:25.374Z,3.53
2023-03-11T07:34:27.233Z,2.17
2023-03-11T07:37:29.005Z,1.65
2023-03-11T07:40:30.873Z,1.25
2023-03-11T07:43:33.386Z,2.50
2023-03-11T07:46:35.235Z,5.35
2023-03-11T07:49:37.037Z,3.60
2023-03-11T07:52:38.841Z,2.92
2023-03-11T07:55:40.702Z,4.40
2023-03-11T07:58:45.257Z,2.03
2023-03-11T08:01:47.582Z,5.13
2023-03-11T08:04:51.868Z,4.43
2023-03-11T08:07:53.775Z,5.18
2023-03-11T08:10:55.930Z,4.05
2023-03-11T08:13:58.243Z,3.60
2023-03-11T08:16:59.975Z,4.43
2023-03-11T08:20:01.792Z,2.13
2023-03-11T08:23:03.864Z,3.85
2023-03-11T08:26:07.330Z,4.57
2023-03-11T08:29:09.068Z,4.20
2023-03-11T08:32:10.992Z,11.55
2023-03-11T08:35:13.147Z,8.68
2023-03-11T08:38:15.176Z,5.20
2023-03-11T08:41:17.029Z,7.50
2023-03-11T08:44:18.698Z,6.82
2023-03-11T08:47:20.612Z,6.38
2023-03-11T08:50:22.396Z,5.60
2023-03-11T08:53:25.079Z,7.38
2023-03-11T08:56:27.218Z,6.55
2023-03-11T08:59:32.374Z,4.35
2023-03-11T09:02:34.324Z,3.95
2023-03-11T09:05:36.940Z,4.68
2023-03-11T09:08:38.798Z,4.00
2023-03-11T09:11:41.734Z,2.88
2023-03-11T09:14:44.083Z,3.67
2023-03-11T09:17:46.055Z,2.63
2023-03-11T09:20:47.932Z,2.80
2023-03-11T09:23:49.825Z,5.78
2023-03-11T09:26:51.610Z,6.10
2023-03-11T09:29:53.274Z,2.90
2023-03-11T09:32:55.101Z,2.05
2023-03-11T09:35:58.532Z,2.60
2023-03-11T09:39:01.246Z,1.30
2023-03-11T09:42:15.496Z,1.40
2023-03-11T09:45:27.617Z,2.42
2023-03-11T09:48:57.362Z,1.17
2023-03-11T09:52:05.141Z,1.27
2023-03-11T09:55:22.047Z,2.00
2023-03-11T09:58:29.773Z,1.48
2023-03-11T10:01:42.822Z,0.85
2023-03-11T10:05:06.777Z,0.90
2023-03-11T10:08:33.103Z,2.28
2023-03-11T10:11:50.978Z,1.20
2023-03-11T10:15:07.751Z,1.20
2023-03-11T10:18:35.631Z,0.77
2023-03-11T10:22:06.594Z,1.30
2023-03-11T10:25:24.438Z,1.55
2023-03-11T10:28:37.323Z,1.88
2023-03-11T10:31:44.039Z,4.18
2023-03-11T10:34:48.876Z,1.53
2023-03-11T10:37:55.030Z,2.75
2023-03-11T10:41:01.434Z,3.83
2023-03-11T10:44:13.652Z,1.20
2023-03-11T10:47:19.911Z,3.35
2023-03-11T10:50:21.717Z,1.35
2023-03-11T10:53:23.457Z,1.60
2023-03-11T10:56:31.974Z,1.60
2023-03-11T10:59:50.523Z,1.98
2023-03-11T11:06:19.618Z,1.52
2023-03-11T11:09:25.739Z,0.75
2023-03-11T11:12:28.607Z,0.37
2023-03-11T11:15:33.597Z,0.22
2023-03-11T11:18:44.201Z,1.02
2023-03-11T11:21:49.837Z,1.08
2023-03-11T11:24:54.699Z,1.00
2023-03-11T11:28:14.720Z,1.13
2023-03-11T11:31:23.879Z,1.35
2023-03-11T11:34:34.438Z,0.60
2023-03-11T11:37:40.120Z,0.75
2023-03-11T11:40:42.125Z,0.75
2023-03-11T11:44:01.590Z,0.55
2023-03-11T11:47:16.370Z,0.52
2023-03-11T11:50:37.662Z,0.45
2023-03-11T11:53:54.397Z,0.45
2023-03-11T11:56:56.665Z,0.65
2023-03-11T11:59:58.597Z,1.23
2023-03-11T12:03:26.566Z,0.63
2023-03-11T12:06:37.052Z,2.13
2023-03-11T12:09:53.307Z,2.53
2023-03-11T12:13:30.177Z,1.00
2023-03-11T12:17:04.484Z,1.42
2023-03-11T12:20:20.971Z,0.80
2023-03-11T12:24:07.684Z,1.90
2023-03-11T12:27:20.134Z,1.92
2023-03-11T12:30:29.560Z,1.92
2023-03-11T12:33:37.038Z,1.13
2023-03-11T12:36:44.636Z,1.08
2023-03-11T12:39:46.384Z,1.25
2023-03-11T12:42:48.176Z,1.77
2023-03-11T12:45:52.165Z,2.97
2023-03-11T12:49:13.161Z,1.75
2023-03-11T12:52:14.868Z,1.27
2023-03-11T12:55:16.573Z,1.65
2023-03-11T12:58:32.296Z,2.25
2023-03-11T13:01:47.794Z,1.70
2023-03-11T13:05:18.722Z,1.08
2023-03-11T13:08:43.579Z,1.25
2023-03-11T13:11:48.211Z,1.52
2023-03-11T13:15:35.823Z,5.18
2023-03-11T13:18:37.581Z,1.67
2023-03-11T13:21:39.559Z,1.00
2023-03-11T13:24:50.156Z,1.70
2023-03-11T13:27:57.585Z,7.45
2023-03-11T13:31:25.903Z,17.80
2023-03-11T13:34:45.942Z,15.53
2023-03-11T13:38:09.489Z,12.93
2023-03-11T13:41:24.784Z,3.20
2023-03-11T13:44:30.206Z,3.00
2023-03-11T13:47:33.811Z,2.67
2023-03-11T13:50:44.512Z,2.60
2023-03-11T13:53:53.501Z,2.40
2023-03-11T13:56:58.558Z,2.40
2023-03-11T14:00:28.442Z,2.13
2023-03-11T14:03:40.548Z,2.10
2023-03-11T14:06:42.717Z,2.53
2023-03-11T14:09:44.484Z,2.60
2023-03-11T14:12:46.881Z,3.63
2023-03-11T14:15:55.373Z,3.03
2023-03-11T14:19:15.408Z,2.78
2023-03-11T14:22:17.249Z,2.55
2023-03-11T14:25:31.234Z,1.65
2023-03-11T14:28:40.461Z,1.83
2023-03-11T14:31:46.821Z,2.88
2023-03-11T14:34:48.614Z,2.85
2023-03-11T14:37:50.468Z,3.40
2023-03-11T14:40:56.492Z,3.78
2023-03-11T14:43:58.516Z,3.20
2023-03-11T14:47:11.601Z,3.88
2023-03-11T14:50:24.414Z,3.65
2023-03-11T14:53:38.363Z,3.72
2023-03-11T14:56:44.572Z,3.35
2023-03-11T14:59:50.004Z,3.00
2023-03-11T15:03:12.701Z,2.20
2023-03-11T15:06:17.837Z,2.67
2023-03-11T15:09:22.814Z,4.68
2023-03-11T15:12:41.460Z,6.63
2023-03-11T15:15:45.296Z,5.10
2023-03-11T15:18:47.327Z,5.65
2023-03-11T15:21:51.077Z,8.65
2023-03-11T15:24:56.280Z,8.63
2023-03-11T15:27:58.269Z,4.28
2023-03-11T15:31:22.071Z,3.85
2023-03-11T15:34:35.426Z,3.30
2023-03-11T15:37:38.428Z,2.90
2023-03-11T15:40:45.569Z,2.30
2023-03-11T15:43:49.267Z,1.98
2023-03-11T15:46:51.570Z,2.35
2023-03-11T15:49:55.656Z,3.80
2023-03-11T15:52:58.652Z,1.63
2023-03-11T15:56:07.688Z,1.83
2023-03-11T15:59:15.351Z,1.48
2023-03-11T16:02:26.746Z,1.88
2023-03-11T16:05:28.998Z,2.63
2023-03-11T16:08:30.852Z,1.60
2023-03-11T16:11:33.216Z,2.15
2023-03-11T16:14:34.920Z,2.03
2023-03-11T16:17:48.778Z,3.50
2023-03-11T16:20:54.488Z,3.13
2023-03-11T16:23:56.266Z,3.17
2023-03-11T16:26:57.902Z,5.25
2023-03-11T16:29:59.597Z,2.50
2023-03-11T16:33:04.371Z,4.05
2023-03-11T16:36:06.934Z,3.20
2023-03-11T16:39:09.342Z,2.15
2023-03-11T16:42:11.116Z,3.53
2023-03-11T16:45:15.093Z,2.28
2023-03-11T16:48:17.190Z,2.90
2023-03-11T16:51:18.982Z,2.42
2023-03-11T16:54:23.356Z,1.70
2023-03-11T16:57:25.360Z,1.75
2023-03-11T17:00:27.251Z,2.25
2023-03-11T17:03:34.430Z,2.35
2023-03-11T17:06:43.037Z,1.88
2023-03-11T17:09:44.762Z,2.25
2023-03-11T17:12:46.552Z,2.35
2023-03-11T17:16:02.208Z,3.25
2023-03-11T17:19:04.108Z,2.75
2023-03-11T17:22:05.960Z,3.28
2023-03-11T17:25:08.280Z,2.80
2023-03-11T17:28:10.559Z,3.33
2023-03-11T17:31:16.586Z,2.97
2023-03-11T17:34:18.465Z,3.55
2023-03-11T17:37:20.703Z,3.47
2023-03-11T17:40:22.703Z,3.20
2023-03-11T17:43:25.124Z,2.92
2023-03-11T17:46:26.977Z,3.45
2023-03-11T17:49:28.843Z,3.47
2023-03-11T17:52:30.548Z,3.78
2023-03-11T17:55:33.805Z,4.57
2023-03-11T17:58:36.062Z,4.68
2023-03-11T18:01:38.419Z,4.88
2023-03-11T18:04:41.986Z,3.15
2023-03-11T18:07:43.794Z,3.45
2023-03-11T18:10:50.254Z,2.80
2023-03-11T18:13:53.191Z,3.25
2023-03-11T18:16:54.963Z,2.95
2023-03-11T18:19:58.665Z,2.58
2023-03-11T18:23:00.583Z,3.85
2023-03-11T18:26:04.969Z,2.58
2023-03-11T18:29:06.707Z,2.75
2023-03-11T18:32:08.498Z,3.30
2023-03-11T18:35:10.989Z,2.63
2023-03-11T18:38:12.829Z,2.70
2023-03-11T18:41:15.710Z,3.20
2023-03-11T18:44:21.259Z,3.58
2023-03-11T18:47:22.973Z,3.05
2023-03-11T18:50:24.858Z,2.90
2023-03-11T18:53:26.827Z,2.83
2023-03-11T18:56:31.110Z,3.97
2023-03-11T18:59:33.011Z,4.25
2023-03-11T19:02:34.861Z,2.85
2023-03-11T19:05:47.798Z,3.35
2023-03-11T19:08:50.796Z,3.08
2023-03-11T19:11:52.526Z,2.40
2023-03-11T19:14:54.264Z,3.00
2023-03-11T19:18:06.270Z,2.95
2023-03-11T19:21:11.372Z,3.63
2023-03-11T19:24:14.180Z,3.10
2023-03-11T19:27:21.856Z,3.28
2023-03-11T19:30:23.773Z,1.98
2023-03-11T19:33:26.277Z,2.15
2023-03-11T19:36:28.297Z,2.13
2023-03-11T19:39:30.242Z,2.30
2023-03-11T19:42:53.774Z,3.30
2023-03-11T19:45:56.943Z,3.00
2023-03-11T19:48:59.753Z,2.03
2023-03-11T19:52:02.033Z,2.42
2023-03-11T19:55:04.731Z,2.95
2023-03-11T19:58:06.497Z,2.15
2023-03-11T20:01:16.078Z,4.28
2023-03-11T20:04:18.026Z,2.45
2023-03-11T20:07:21.080Z,2.45
2023-03-11T20:10:22.929Z,3.50
2023-03-11T20:13:24.831Z,4.10
2023-03-11T20:16:26.601Z,2.97
2023-03-11T20:19:28.427Z,4.10
2023-03-11T20:22:30.266Z,3.45
2023-03-11T20:25:32.643Z,2.88
2023-03-11T20:28:34.675Z,3.40
2023-03-11T20:31:36.687Z,2.75
2023-03-11T20:34:38.553Z,4.00
2023-03-11T20:37:40.457Z,2.97
2023-03-11T20:40:42.260Z,3.40
2023-03-11T20:43:45.041Z,4.72
2023-03-11T20:46:47.120Z,3.55
2023-03-11T20:49:48.966Z,3.60
2023-03-11T20:52:51.183Z,4.88
2023-03-11T20:55:53.443Z,3.60
2023-03-11T20:58:56.560Z,4.68
2023-03-11T21:01:58.393Z,4.40
2023-03-11T21:05:00.271Z,4.70
2023-03-11T21:08:02.246Z,3.90
2023-03-11T21:11:04.071Z,3.63
2023-03-11T21:14:06.812Z,3.50
2023-03-11T21:17:11.077Z,4.18
2023-03-11T21:20:13.565Z,3.35
2023-03-11T21:23:15.579Z,4.50
2023-03-11T21:26:17.784Z,5.13
2023-03-11T21:29:19.818Z,5.00
2023-03-11T21:32:22.687Z,4.63
2023-03-11T21:35:24.597Z,3.33
2023-03-11T21:38:27.701Z,5.05
2023-03-11T21:41:29.683Z,4.40
2023-03-11T21:44:31.620Z,5.35
2023-03-11T21:47:33.441Z,3.65
2023-03-11T21:50:36.185Z,4.18
2023-03-11T21:53:38.166Z,4.18
2023-03-11T21:56:40.097Z,4.85
2023-03-11T21:59:41.838Z,3.60
2023-03-11T22:02:43.780Z,4.95
2023-03-11T22:05:45.697Z,6.25
2023-03-11T22:08:47.536Z,4.93
2023-03-11T22:11:49.373Z,5.13
2023-03-11T22:14:51.358Z,4.43
2023-03-11T22:17:53.262Z,4.60
2023-03-11T22:21:00.557Z,5.05
2023-03-11T22:24:02.406Z,5.47
2023-03-11T22:27:04.321Z,5.07
2023-03-11T22:30:07.261Z,5.95
2023-03-11T22:33:09.012Z,3.60
2023-03-11T22:36:10.837Z,7.28
2023-03-11T22:39:12.622Z,6.22
2023-03-11T22:42:14.431Z,4.25
2023-03-11T22:45:16.279Z,5.65
2023-03-11T22:48:18.228Z,4.35
2023-03-11T22:51:20.156Z,6.05
2023-03-11T22:54:21.962Z,4.82
2023-03-11T22:57:24.002Z,3.88
2023-03-11T23:00:25.777Z,4.40
2023-03-11T23:03:27.807Z,6.32
2023-03-11T23:06:29.714Z,4.65
2023-03-11T23:09:31.483Z,5.03
2023-03-11T23:12:34.201Z,4.07
2023-03-11T23:15:36.519Z,2.95
2023-03-11T23:18:39.113Z,3.50
2023-03-11T23:21:40.976Z,4.38
2023-03-11T23:24:42.662Z,3.55
2023-03-11T23:27:45.830Z,3.33
2023-03-11T23:30:47.660Z,5.45
2023-03-11T23:33:49.822Z,5.32
2023-03-11T23:36:51.610Z,4.13
2023-03-11T23:39:53.362Z,3.60
2023-03-11T23:42:55.448Z,4.63
2023-03-11T23:45:57.197Z,3.63
2023-03-11T23:49:00.892Z,5.05
2023-03-11T23:52:02.656Z,4.65
2023-03-11T23:55:04.917Z,3.17
2023-03-11T23:58:07.033Z,5.30
